Time;durP1;ratioP1;P1;durP2;ratioP2;P2;SDS_P1;SDS_P2;PMS_P1;PMS_P2;Temp;Humidity;BMP_temperature;BMP_pressure;BME280_temperature;BME280_humidity;BME280_pressure;Samples;Min_cycle;Max_cycle;Signal;HPM_P1;HPM_P2
2022/03/02 00:01:51;;;;;;;16.83;12.20;;;;;;;-4.39;100.00;97356.78;4994519;28;20476;-72
2022/03/02 00:04:18;;;;;;;14.73;11.63;;;;;;;-4.32;100.00;97365.28;5009327;28;20503;-73
2022/03/02 00:06:45;;;;;;;16.50;10.30;;;;;;;-4.32;100.00;97368.66;4994094;28;20467;-73
2022/03/02 00:09:12;;;;;;;13.17;9.60;;;;;;;-4.58;100.00;97340.38;5009504;28;20487;-73
2022/03/02 00:11:39;;;;;;;15.27;10.83;;;;;;;-4.24;100.00;97368.41;4993407;28;20448;-73
2022/03/02 00:14:06;;;;;;;13.80;9.33;;;;;;;-4.49;100.00;97310.78;4994292;28;20552;-73
2022/03/02 00:16:34;;;;;;;18.70;12.13;;;;;;;-4.38;100.00;97345.47;4992621;28;20429;-73
2022/03/02 00:19:02;;;;;;;18.53;12.47;;;;;;;-4.09;100.00;97367.34;4992662;28;20778;-74
2022/03/02 00:21:29;;;;;;;14.70;10.27;;;;;;;-4.18;100.00;97359.84;4990624;28;20432;-73
2022/03/02 00:23:55;;;;;;;13.30;8.63;;;;;;;-4.47;100.00;97326.84;5008114;28;20480;-74
2022/03/02 00:26:23;;;;;;;14.80;9.73;;;;;;;-4.46;100.00;97325.84;4991354;28;20437;-74
2022/03/02 00:28:50;;;;;;;15.90;10.00;;;;;;;-4.36;100.00;97352.00;5007415;28;20465;-74
2022/03/02 00:31:17;;;;;;;10.30;9.30;;;;;;;-4.73;100.00;97322.56;4992431;28;20440;-74
2022/03/02 00:33:43;;;;;;;12.20;9.10;;;;;;;-4.78;100.00;97349.00;5007162;28;20968;-74
2022/03/02 00:36:10;;;;;;;11.60;9.00;;;;;;;-4.93;100.00;97322.66;4991125;28;20483;-74
2022/03/02 00:38:37;;;;;;;11.33;8.27;;;;;;;-4.92;100.00;97338.91;4991045;28;20499;-74
2022/03/02 00:41:04;;;;;;;14.30;9.70;;;;;;;-4.94;100.00;97333.16;4992233;28;20431;-74
2022/03/02 00:43:31;;;;;;;16.13;10.23;;;;;;;-4.92;100.00;97337.13;5006238;28;20476;-74
2022/03/02 00:45:58;;;;;;;16.60;9.03;;;;;;;-4.72;100.00;97338.84;4990134;28;20460;-74
2022/03/02 00:48:25;;;;;;;12.47;7.97;;;;;;;-4.88;100.00;97309.94;4990129;28;20909;-74
2022/03/02 00:50:52;;;;;;;13.33;9.70;;;;;;;-4.70;100.00;97342.78;4974062;28;20441;-74
2022/03/02 00:53:19;;;;;;;12.90;9.00;;;;;;;-4.57;100.00;97337.59;4991426;28;20908;-74
2022/03/02 00:55:46;;;;;;;10.53;7.90;;;;;;;-4.63;100.00;97301.50;5006611;28;20894;-73
2022/03/02 00:58:12;;;;;;;7.87;7.07;;;;;;;-4.65;100.00;97326.72;4989995;28;20527;-73
2022/03/02 01:00:39;;;;;;;8.33;7.50;;;;;;;-4.85;100.00;97324.19;5006466;28;21029;-74
2022/03/02 01:03:06;;;;;;;8.70;7.57;;;;;;;-4.71;100.00;97324.94;4996341;28;20470;-74
2022/03/02 01:05:33;;;;;;;10.27;8.53;;;;;;;-4.87;100.00;97279.78;4990115;28;20910;-74
2022/03/02 01:08:00;;;;;;;13.00;7.47;;;;;;;-4.98;100.00;97288.16;4989964;28;20552;-74
2022/03/02 01:10:26;;;;;;;9.70;7.50;;;;;;;-4.85;100.00;97303.56;4991396;28;20440;-74
2022/03/02 01:12:53;;;;;;;7.93;7.20;;;;;;;-5.52;100.00;97312.44;4991372;28;20471;-74
2022/03/02 01:15:20;;;;;;;7.57;6.30;;;;;;;-5.46;100.00;97296.19;4991335;28;20438;-73
2022/03/02 01:17:47;;;;;;;9.60;8.50;;;;;;;-5.33;100.00;97303.91;5006236;28;20491;-73
2022/03/02 01:20:14;;;;;;;10.00;8.00;;;;;;;-5.13;100.00;97311.59;5006281;28;20437;-73
2022/03/02 01:22:41;;;;;;;15.00;7.63;;;;;;;-5.08;100.00;97294.50;5006259;28;20500;-73
2022/03/02 01:25:09;;;;;;;9.77;8.77;;;;;;;-5.06;100.00;97309.78;5006167;28;20495;-73
2022/03/02 01:27:37;;;;;;;10.50;7.70;;;;;;;-4.99;100.00;97302.81;5006025;28;20487;-73
2022/03/02 01:30:11;;;;;;;8.43;7.57;;;;;;;-5.24;100.00;97271.75;5005989;28;20444;-73
2022/03/02 01:32:38;;;;;;;10.00;8.00;;;;;;;-5.25;100.00;97251.34;4991163;28;20543;-73
2022/03/02 01:35:05;;;;;;;11.80;9.00;;;;;;;-5.22;100.00;97262.03;5009721;28;20847;-74
2022/03/02 01:37:31;;;;;;;8.77;7.97;;;;;;;-5.01;100.00;97284.19;4994884;28;20428;-73
2022/03/02 01:39:58;;;;;;;11.10;8.13;;;;;;;-4.97;100.00;97287.16;4993461;28;20433;-73
2022/03/02 01:42:25;;;;;;;10.43;8.40;;;;;;;-5.06;100.00;97261.59;5009603;28;20464;-73
2022/03/02 01:44:52;;;;;;;11.00;8.30;;;;;;;-4.98;100.00;97277.84;5009423;28;20479;-73
2022/03/02 01:47:18;;;;;;;8.67;7.37;;;;;;;-5.46;100.00;97248.03;5009613;28;20556;-73
2022/03/02 01:49:46;;;;;;;9.27;7.80;;;;;;;-5.56;100.00;97252.03;5009236;28;20459;-73
2022/03/02 01:52:13;;;;;;;8.10;7.30;;;;;;;-5.40;100.00;97277.34;4993230;28;20820;-73
2022/03/02 01:54:40;;;;;;;12.63;7.17;;;;;;;-5.48;100.00;97260.31;5009487;28;20539;-73
2022/03/02 01:57:06;;;;;;;7.07;6.40;;;;;;;-5.25;100.00;97277.91;4993053;28;20440;-73
2022/03/02 01:59:33;;;;;;;9.93;7.50;;;;;;;-5.34;100.00;97273.97;4993192;28;20453;-73
2022/03/02 02:02:00;;;;;;;10.83;7.30;;;;;;;-5.51;100.00;97268.44;4994419;28;20465;-73
2022/03/02 02:04:28;;;;;;;9.23;8.23;;;;;;;-5.49;100.00;97263.09;4976824;28;20497;-73
2022/03/02 02:06:54;;;;;;;11.17;7.97;;;;;;;-5.40;100.00;97254.16;5009279;28;20980;-73
2022/03/02 02:09:21;;;;;;;9.57;8.60;;;;;;;-5.31;100.00;97268.41;4992968;28;20884;-73
2022/03/02 02:11:48;;;;;;;10.97;8.43;;;;;;;-5.53;100.00;97231.78;4992982;28;20476;-73
2022/03/02 02:14:14;;;;;;;10.47;8.97;;;;;;;-5.30;100.00;97270.00;4976691;28;20473;-73
2022/03/02 02:16:41;;;;;;;10.90;8.50;;;;;;;-5.54;100.00;97234.56;4992747;28;20621;-73
2022/03/02 02:19:08;;;;;;;10.03;8.30;;;;;;;-5.44;100.00;97230.59;4992846;28;20456;-73
2022/03/02 02:21:35;;;;;;;12.90;7.73;;;;;;;-5.25;100.00;97257.28;4992657;28;20448;-74
2022/03/02 02:24:03;;;;;;;9.50;8.50;;;;;;;-5.31;100.00;97255.53;4976552;28;20972;-73
2022/03/02 02:26:29;;;;;;;11.93;9.20;;;;;;;-5.70;100.00;97221.13;4992937;28;20507;-73
2022/03/02 02:28:56;;;;;;;10.70;7.90;;;;;;;-5.65;100.00;97251.44;4992891;28;20482;-74
2022/03/02 02:31:23;;;;;;;11.20;8.40;;;;;;;-5.70;100.00;97225.50;4993407;28;20472;-73
2022/03/02 02:33:51;;;;;;;8.90;8.00;;;;;;;-5.52;100.00;97266.84;4992770;28;20477;-73
2022/03/02 02:36:19;;;;;;;9.50;7.83;;;;;;;-5.65;100.00;97254.00;5009045;28;20945;-73
2022/03/02 02:38:45;;;;;;;8.60;7.30;;;;;;;-5.83;100.00;97215.22;5008595;28;20527;-73
2022/03/02 02:41:12;;;;;;;9.10;7.60;;;;;;;-5.73;100.00;97218.19;4992354;28;20473;-73
2022/03/02 02:43:42;;;;;;;9.90;7.40;;;;;;;-5.75;100.00;97233.81;4982352;28;20464;-74
2022/03/02 02:46:10;;;;;;;8.80;7.13;;;;;;;-5.65;100.00;97238.56;5008523;28;20487;-73
2022/03/02 02:48:38;;;;;;;11.00;7.70;;;;;;;-5.66;100.00;97234.41;4992208;28;20460;-73
2022/03/02 02:51:06;;;;;;;8.73;7.90;;;;;;;-5.75;100.00;97217.56;4992146;28;20440;-73
2022/03/02 02:53:33;;;;;;;10.23;8.30;;;;;;;-5.85;100.00;97199.19;5008163;28;20485;-73
2022/03/02 02:56:00;;;;;;;10.90;8.10;;;;;;;-5.59;100.00;97234.41;5008513;28;20523;-73
2022/03/02 02:58:27;;;;;;;9.13;7.73;;;;;;;-5.79;100.00;97234.41;4992302;28;20494;-73
2022/03/02 03:00:54;;;;;;;7.70;6.50;;;;;;;-5.70;100.00;97244.31;4991979;28;20556;-73
2022/03/02 03:03:20;;;;;;;12.30;8.23;;;;;;;-5.54;100.00;97237.16;5008105;28;20456;-73
2022/03/02 03:05:47;;;;;;;10.07;8.23;;;;;;;-5.58;100.00;97221.31;5007988;28;20522;-73
2022/03/02 03:08:14;;;;;;;13.40;9.90;;;;;;;-5.47;100.00;97235.38;5008088;28;21039;-73
2022/03/02 03:10:43;;;;;;;22.50;10.73;;;;;;;-5.63;100.00;97234.00;4991720;28;20641;-73
2022/03/02 03:13:10;;;;;;;15.93;9.57;;;;;;;-5.71;100.00;97221.34;5008042;28;20493;-73
2022/03/02 03:15:37;;;;;;;13.57;10.57;;;;;;;-6.04;100.00;97198.22;5007931;28;20442;-73
2022/03/02 03:18:05;;;;;;;16.57;9.33;;;;;;;-5.77;100.00;97235.00;5008045;28;20487;-73
2022/03/02 03:20:32;;;;;;;14.23;8.83;;;;;;;-5.83;100.00;97213.44;4991660;28;20527;-73
2022/03/02 03:22:59;;;;;;;10.67;7.87;;;;;;;-5.93;100.00;97194.25;5007643;28;20518;-73
2022/03/02 03:25:28;;;;;;;19.23;11.07;;;;;;;-5.88;100.00;97194.41;5007678;28;20498;-73
2022/03/02 03:27:55;;;;;;;18.10;9.77;;;;;;;-5.99;100.00;97181.22;4992763;28;20916;-73
2022/03/02 03:30:23;;;;;;;14.97;10.40;;;;;;;-5.93;100.00;97189.09;5007555;28;20519;-73
2022/03/02 03:32:50;;;;;;;14.40;9.23;;;;;;;-5.75;100.00;97205.47;4991244;28;20452;-73
2022/03/02 03:35:19;;;;;;;15.03;10.20;;;;;;;-5.73;100.00;97206.09;4991574;28;20460;-73
2022/03/02 03:37:46;;;;;;;14.70;10.57;;;;;;;-5.59;100.00;97199.13;4992509;28;20948;-73
2022/03/02 03:40:15;;;;;;;15.17;10.43;;;;;;;-5.65;100.00;97202.50;4992645;28;20459;-73
2022/03/02 03:42:42;;;;;;;9.17;7.80;;;;;;;-5.49;100.00;97209.00;5007237;28;20522;-73
2022/03/02 03:45:10;;;;;;;10.63;8.70;;;;;;;-5.84;100.00;97164.72;4991493;28;20491;-73
2022/03/02 03:47:36;;;;;;;12.10;8.50;;;;;;;-5.56;100.00;97203.88;4991081;28;20498;-73
2022/03/02 03:50:04;;;;;;;8.53;7.63;;;;;;;-5.55;100.00;97205.44;4991049;28;20999;-73
2022/03/02 03:52:30;;;;;;;10.37;8.07;;;;;;;-5.66;100.00;97201.72;4990841;28;20929;-73
2022/03/02 03:54:57;;;;;;;7.97;7.27;;;;;;;-5.76;100.00;97200.53;5007021;28;20492;-73
2022/03/02 03:57:24;;;;;;;10.13;8.10;;;;;;;-5.82;100.00;97152.44;4992307;28;20793;-73
2022/03/02 03:59:50;;;;;;;12.43;8.47;;;;;;;-5.84;100.00;97150.06;5007099;28;20877;-73
2022/03/02 04:02:17;;;;;;;10.03;7.90;;;;;;;-5.59;100.00;97177.72;5007109;28;20444;-73
2022/03/02 04:04:44;;;;;;;8.97;8.17;;;;;;;-5.66;100.00;97170.81;5007052;28;20453;-73
2022/03/02 04:07:11;;;;;;;11.43;7.60;;;;;;;-5.35;100.00;97197.66;4990595;28;20524;-73
2022/03/02 04:09:38;;;;;;;13.80;8.90;;;;;;;-5.40;100.00;97177.66;5006647;28;20829;-73
2022/03/02 04:12:05;;;;;;;10.87;8.17;;;;;;;-5.49;100.00;97172.94;4991654;28;20525;-73
2022/03/02 04:14:32;;;;;;;10.80;8.80;;;;;;;-5.67;100.00;97156.34;4974353;28;20468;-73
2022/03/02 04:16:59;;;;;;;9.50;7.00;;;;;;;-5.55;100.00;97174.53;4991726;28;20929;-73
2022/03/02 04:19:25;;;;;;;11.70;7.70;;;;;;;-5.81;100.00;97143.72;5006571;28;20486;-73
2022/03/02 04:21:52;;;;;;;11.60;8.80;;;;;;;-5.58;100.00;97164.66;5006352;28;20472;-73
2022/03/02 04:24:19;;;;;;;10.20;8.40;;;;;;;-5.34;100.00;97163.19;5006483;28;20558;-73
2022/03/02 04:26:45;;;;;;;8.37;7.53;;;;;;;-5.47;100.00;97146.00;4990166;28;20444;-73
2022/03/02 04:29:12;;;;;;;15.30;8.90;;;;;;;-5.55;100.00;97137.69;4991547;28;20546;-73
2022/03/02 04:31:39;;;;;;;11.07;8.40;;;;;;;-5.66;100.00;97121.88;5006470;28;20445;-73
2022/03/02 04:34:06;;;;;;;15.37;8.30;;;;;;;-5.54;100.00;97137.50;4991466;28;20460;-73
2022/03/02 04:36:33;;;;;;;15.23;8.70;;;;;;;-5.75;100.00;97112.78;4990147;28;20437;-73
2022/03/02 04:38:59;;;;;;;9.90;7.80;;;;;;;-5.33;100.00;97143.38;4990081;28;21054;-73
2022/03/02 04:41:26;;;;;;;10.50;8.10;;;;;;;-5.44;100.00;97114.66;4990029;28;20482;-73
2022/03/02 04:43:53;;;;;;;13.87;9.40;;;;;;;-5.31;100.00;97139.59;4991199;28;20547;-73
2022/03/02 04:46:20;;;;;;;10.23;8.70;;;;;;;-5.27;100.00;97139.94;5006435;28;20499;-73
2022/03/02 04:48:47;;;;;;;11.77;9.00;;;;;;;-5.27;100.00;97130.44;4991434;28;20461;-73
2022/03/02 04:51:14;;;;;;;11.60;9.27;;;;;;;-5.37;100.00;97120.56;5006695;28;20934;-73
2022/03/02 04:53:41;;;;;;;11.90;8.70;;;;;;;-5.44;100.00;97119.03;4990228;28;20510;-73
2022/03/02 04:56:08;;;;;;;9.97;8.27;;;;;;;-5.35;100.00;97128.88;5006650;28;20444;-73
2022/03/02 04:58:35;;;;;;;13.90;8.13;;;;;;;-5.48;100.00;97121.19;4974071;28;20468;-73
2022/03/02 05:01:03;;;;;;;11.97;9.07;;;;;;;-5.60;100.00;97128.00;4991575;28;20858;-73
2022/03/02 05:03:30;;;;;;;9.67;8.13;;;;;;;-5.73;100.00;97138.34;4991293;28;20466;-73
2022/03/02 05:05:56;;;;;;;12.00;9.33;;;;;;;-5.70;100.00;97094.97;4982923;28;20447;-73
2022/03/02 05:08:23;;;;;;;12.00;8.27;;;;;;;-5.52;100.00;97114.09;4992904;28;20475;-73
2022/03/02 05:10:50;;;;;;;11.57;8.13;;;;;;;-5.46;100.00;97103.78;5010265;28;20451;-73
2022/03/02 05:13:16;;;;;;;10.33;8.30;;;;;;;-5.17;100.00;97124.84;4993973;28;20463;-73
2022/03/02 05:15:43;;;;;;;10.23;8.30;;;;;;;-5.29;100.00;97098.16;4995348;28;20801;-73
2022/03/02 05:18:10;;;;;;;12.27;8.90;;;;;;;-5.50;100.00;97086.34;5010110;28;20468;-73
2022/03/02 05:20:37;;;;;;;13.23;10.80;;;;;;;-5.18;100.00;97120.69;5010058;28;20825;-73
2022/03/02 05:23:04;;;;;;;11.83;8.33;;;;;;;-5.24;100.00;97113.78;4994058;28;20464;-73
2022/03/02 05:25:30;;;;;;;12.53;9.07;;;;;;;-5.24;100.00;97108.63;4994215;28;20440;-73
2022/03/02 05:27:57;;;;;;;12.97;9.60;;;;;;;-5.53;100.00;97082.41;5010519;28;20460;-73
2022/03/02 05:30:24;;;;;;;11.10;9.30;;;;;;;-5.67;100.00;97091.19;4994103;28;20537;-73
2022/03/02 05:32:50;;;;;;;11.33;9.43;;;;;;;-5.70;100.00;97076.16;4994039;28;20503;-73
2022/03/02 05:35:17;;;;;;;9.07;8.00;;;;;;;-5.60;100.00;97075.72;4993891;28;20436;-73
2022/03/02 05:37:44;;;;;;;16.43;9.63;;;;;;;-5.27;100.00;97111.63;5010392;28;20463;-73
2022/03/02 05:40:16;;;;;;;12.20;9.20;;;;;;;-5.41;100.00;97087.69;5009994;28;20436;-72
2022/03/02 05:42:50;;;;;;;12.70;7.50;;;;;;;-5.19;100.00;97096.72;4993700;28;20436;-73
2022/03/02 05:45:16;;;;;;;15.37;11.23;;;;;;;-5.09;100.00;97116.84;4994012;28;20864;-73
2022/03/02 05:47:43;;;;;;;11.77;9.23;;;;;;;-5.26;100.00;97082.25;4977641;28;20537;-73
2022/03/02 05:50:10;;;;;;;12.30;10.60;;;;;;;-5.21;100.00;97101.28;4993657;28;20464;-73
2022/03/02 05:52:39;;;;;;;14.80;11.63;;;;;;;-5.13;100.00;97106.19;5010012;28;20452;-73
2022/03/02 05:55:06;;;;;;;19.57;12.83;;;;;;;-5.22;100.00;97128.03;4995060;28;20543;-74
2022/03/02 05:57:33;;;;;;;20.43;12.30;;;;;;;-5.37;100.00;97112.03;4993459;28;20447;-73
2022/03/02 06:00:00;;;;;;;17.60;10.83;;;;;;;-5.38;100.00;97119.00;4977630;28;20436;-73
2022/03/02 06:02:26;;;;;;;14.53;11.23;;;;;;;-5.74;100.00;97062.09;5009832;28;20433;-73
2022/03/02 06:04:53;;;;;;;15.67;11.90;;;;;;;-5.60;100.00;97098.91;4993342;28;20463;-73
2022/03/02 06:07:20;;;;;;;19.60;12.33;;;;;;;-5.51;100.00;97095.06;4993282;28;20469;-73
2022/03/02 06:09:49;;;;;;;23.13;13.40;;;;;;;-5.33;100.00;97092.63;4995142;28;20575;-73
2022/03/02 06:12:36;;;;;;;18.63;12.00;;;;;;;-5.23;100.00;97110.19;4994650;28;20476;-73
2022/03/02 06:15:04;;;;;;;13.20;10.57;;;;;;;-5.15;100.00;97117.69;4937034;29;20538;-73
2022/03/02 06:17:32;;;;;;;19.30;12.20;;;;;;;-5.28;100.00;97107.47;4953484;29;20449;-73
2022/03/02 06:19:58;;;;;;;19.93;14.03;;;;;;;-5.31;100.00;97106.09;4953250;28;20473;-73
2022/03/02 06:22:25;;;;;;;17.20;15.40;;;;;;;-4.91;100.00;97114.38;4953873;29;20437;-73
2022/03/02 06:24:53;;;;;;;17.43;14.33;;;;;;;-4.86;100.00;97129.22;4937054;29;20462;-73
2022/03/02 06:27:21;;;;;;;16.13;12.90;;;;;;;-4.85;100.00;97121.28;4953373;29;20431;-73
2022/03/02 06:29:51;;;;;;;17.37;12.07;;;;;;;-4.94;100.00;97112.22;4921422;29;20892;-73
2022/03/02 06:32:17;;;;;;;18.70;12.87;;;;;;;-5.00;100.00;97115.63;4937208;29;21245;-73
2022/03/02 06:34:44;;;;;;;14.70;11.90;;;;;;;-4.82;100.00;97123.44;4937565;29;20458;-73
2022/03/02 06:37:11;;;;;;;13.60;12.30;;;;;;;-4.85;100.00;97125.66;4953257;29;20616;-73
2022/03/02 06:39:38;;;;;;;18.10;14.00;;;;;;;-4.81;100.00;97108.75;4952202;29;20605;-73
2022/03/02 06:42:09;;;;;;;15.53;11.00;;;;;;;-4.60;100.00;97138.56;4936894;29;20438;-73
2022/03/02 06:44:46;;;;;;;13.97;11.23;;;;;;;-4.46;100.00;97127.94;4934863;29;20498;-73
2022/03/02 06:47:16;;;;;;;12.90;11.60;;;;;;;-4.39;100.00;97135.63;4946674;29;20441;-73
2022/03/02 06:49:56;;;;;;;13.87;11.60;;;;;;;-4.42;100.00;97133.47;4936976;29;20553;-73
2022/03/02 06:52:31;;;;;;;15.30;11.73;;;;;;;-4.38;100.00;97131.28;4953105;28;20441;-73
2022/03/02 06:55:03;;;;;;;18.73;12.90;;;;;;;-4.38;100.00;97137.22;5008709;28;20452;-73
2022/03/02 06:57:30;;;;;;;15.97;12.10;;;;;;;-4.42;100.00;97124.94;5008746;28;20994;-73
2022/03/02 07:00:04;;;;;;;19.30;15.07;;;;;;;-4.26;100.00;97134.75;4993448;28;20814;-73
2022/03/02 07:02:39;;;;;;;19.60;15.00;;;;;;;-4.21;100.00;97137.47;4992294;28;20536;-72
2022/03/02 07:05:09;;;;;;;20.30;14.07;;;;;;;-4.22;100.00;97133.31;4993606;28;20792;-73
2022/03/02 07:07:37;;;;;;;20.97;15.90;;;;;;;-4.22;100.00;97123.78;5008570;28;20551;-73
2022/03/02 07:10:06;;;;;;;24.03;15.83;;;;;;;-4.28;100.00;97114.28;5008402;28;20499;-73
2022/03/02 07:12:33;;;;;;;26.50;13.80;;;;;;;-4.25;100.00;97129.38;5008352;28;20548;-73
2022/03/02 07:15:01;;;;;;;20.10;14.00;;;;;;;-4.40;100.00;97103.09;4991900;28;20461;-73
2022/03/02 07:17:31;;;;;;;15.10;12.60;;;;;;;-3.99;100.00;97120.59;5008243;28;20463;-73
2022/03/02 07:20:04;;;;;;;16.57;13.73;;;;;;;-3.67;100.00;97136.75;5008213;28;20439;-73
2022/03/02 07:22:33;;;;;;;17.00;14.60;;;;;;;-3.75;100.00;97146.56;4993041;28;20503;-73
2022/03/02 07:25:11;;;;;;;16.73;14.43;;;;;;;-3.89;100.00;97126.03;4993063;28;20460;-73
2022/03/02 07:27:40;;;;;;;20.10;12.87;;;;;;;-3.65;100.00;97139.09;4993041;28;20844;-73
2022/03/02 07:30:08;;;;;;;17.30;12.07;;;;;;;-3.49;100.00;97137.72;4991160;28;20477;-73
2022/03/02 07:32:37;;;;;;;16.53;12.30;;;;;;;-3.42;100.00;97139.25;5007904;28;20495;-73
2022/03/02 07:35:05;;;;;;;16.83;15.10;;;;;;;-3.43;100.00;97136.88;4991935;28;20437;-74
2022/03/02 07:37:33;;;;;;;20.90;14.87;;;;;;;-3.40;100.00;97139.03;4992366;28;20443;-73
2022/03/02 07:40:01;;;;;;;17.70;14.63;;;;;;;-3.67;100.00;97098.00;5008647;28;20507;-74
2022/03/02 07:42:28;;;;;;;22.77;13.50;;;;;;;-3.28;100.00;97134.72;4992274;28;20436;-72
2022/03/02 07:44:54;;;;;;;13.67;10.63;;;;;;;-3.12;100.00;97135.91;5008469;28;20481;-73
2022/03/02 07:47:22;;;;;;;27.47;10.83;;;;;;;-3.13;100.00;97148.03;4991904;28;20469;-73
2022/03/02 07:49:49;;;;;;;16.07;12.70;;;;;;;-3.22;100.00;97125.28;4992501;28;21027;-74
2022/03/02 07:52:17;;;;;;;23.07;11.17;;;;;;;-3.24;100.00;97094.47;5007895;28;20492;-74
2022/03/02 07:54:46;;;;;;;15.63;11.20;;;;;;;-3.16;100.00;97114.06;4991281;28;20515;-74
2022/03/02 07:57:15;;;;;;;19.23;11.93;;;;;;;-2.86;100.00;97140.72;4991992;28;20452;-74
2022/03/02 07:59:47;;;;;;;34.20;29.07;;;;;;;-2.83;100.00;97152.41;4993518;28;20436;-74
2022/03/02 08:02:15;;;;;;;19.17;14.83;;;;;;;-3.08;100.00;97130.06;5008462;28;20875;-73
2022/03/02 08:04:42;;;;;;;19.57;12.97;;;;;;;-3.03;100.00;97155.28;5007893;28;20547;-73
2022/03/02 08:07:12;;;;;;;24.83;13.03;;;;;;;-2.99;100.00;97122.78;4992421;28;20429;-73
2022/03/02 08:09:40;;;;;;;24.43;16.43;;;;;;;-2.42;100.00;97157.59;4990902;28;20461;-73
2022/03/02 08:12:07;;;;;;;17.10;15.20;;;;;;;-2.55;100.00;97123.34;4991307;28;20520;-73
2022/03/02 08:14:35;;;;;;;18.97;13.53;;;;;;;-2.46;100.00;97125.41;4990853;28;20481;-74
2022/03/02 08:17:03;;;;;;;22.70;14.87;;;;;;;-2.53;100.00;97124.72;4974706;28;20492;-74
2022/03/02 08:19:33;;;;;;;20.33;14.80;;;;;;;-2.43;100.00;97119.75;4991244;28;20892;-74
2022/03/02 08:22:13;;;;;;;18.43;13.80;;;;;;;-2.15;100.00;97136.44;4991021;28;21007;-74
2022/03/02 08:24:45;;;;;;;22.23;14.73;;;;;;;-2.31;100.00;97093.88;4992341;28;20449;-74
2022/03/02 08:27:13;;;;;;;20.80;12.00;;;;;;;-1.96;100.00;97112.00;4991288;28;20994;-74
2022/03/02 08:29:44;;;;;;;18.73;13.33;;;;;;;-1.79;100.00;97128.44;5007294;28;20948;-73
2022/03/02 08:32:13;;;;;;;17.77;13.20;;;;;;;-1.94;100.00;97112.56;5009861;28;20444;-73
2022/03/02 08:34:43;;;;;;;17.10;12.47;;;;;;;-1.86;100.00;97111.44;4993489;28;20476;-74
2022/03/02 08:37:10;;;;;;;18.70;13.83;;;;;;;-1.69;100.00;97122.69;4995943;28;20446;-74
2022/03/02 08:39:38;;;;;;;17.93;13.40;;;;;;;-2.51;100.00;96995.06;5007131;28;20445;-74
2022/03/02 08:42:05;;;;;;;22.67;13.73;;;;;;;-1.61;100.00;97113.75;5006644;28;20432;-73
2022/03/02 08:44:32;;;;;;;21.83;15.07;;;;;;;-1.83;100.00;97096.22;5010034;28;20468;-73
2022/03/02 08:46:59;;;;;;;23.50;14.10;;;;;;;-1.90;100.00;97092.97;4993900;28;20923;-73
2022/03/02 08:49:25;;;;;;;20.70;13.73;;;;;;;-1.71;100.00;97121.34;4974863;28;20490;-72
2022/03/02 08:51:54;;;;;;;16.20;14.13;;;;;;;-1.62;100.00;97115.56;4975652;28;20564;-72
2022/03/02 08:54:23;;;;;;;20.63;14.77;;;;;;;-1.45;100.00;97115.66;4991881;28;20503;-73
2022/03/02 08:56:52;;;;;;;15.77;12.33;;;;;;;-1.49;100.00;97083.41;4992116;28;20433;-73
2022/03/02 08:59:19;;;;;;;21.27;14.00;;;;;;;-1.34;100.00;97107.03;5006928;28;20448;-73
2022/03/02 09:01:53;;;;;;;21.73;14.77;;;;;;;-1.41;100.00;97090.03;5007028;28;20472;-73
2022/03/02 09:04:22;;;;;;;23.23;15.50;;;;;;;-1.15;100.00;97110.25;4990554;28;21017;-73
2022/03/02 09:06:49;;;;;;;17.67;13.80;;;;;;;-1.11;100.00;97116.53;5006873;28;20475;-73
2022/03/02 09:09:17;;;;;;;18.90;13.93;;;;;;;-1.12;100.00;97101.22;4991785;28;20430;-73
2022/03/02 09:11:44;;;;;;;17.43;14.47;;;;;;;-0.76;100.00;97111.19;5006765;28;20501;-73
2022/03/02 09:14:11;;;;;;;18.50;13.40;;;;;;;-0.84;100.00;97114.16;5006659;28;20452;-73
2022/03/02 09:16:39;;;;;;;15.63;13.03;;;;;;;-0.83;100.00;97089.00;5007586;28;20456;-73
2022/03/02 09:19:07;;;;;;;25.10;14.87;;;;;;;-0.55;100.00;97095.94;5008102;28;20445;-74
2022/03/02 09:21:34;;;;;;;21.07;14.40;;;;;;;-0.45;100.00;97109.88;5008362;28;20446;-74
2022/03/02 09:24:01;;;;;;;20.27;15.87;;;;;;;-0.78;100.00;97086.50;4992120;28;20820;-74
2022/03/02 09:26:27;;;;;;;17.93;13.03;;;;;;;-0.42;100.00;97122.38;4991015;28;20493;-73
2022/03/02 09:28:54;;;;;;;14.37;12.90;;;;;;;-0.28;100.00;97122.84;5008547;28;20933;-74
2022/03/02 09:31:22;;;;;;;17.53;13.33;;;;;;;-0.12;100.00;97114.28;5008693;28;20966;-75
2022/03/02 09:34:00;;;;;;;20.57;14.63;;;;;;;0.14;100.00;97117.25;5008279;28;20562;-73
2022/03/02 09:36:27;;;;;;;16.43;13.00;;;;;;;0.15;100.00;97111.78;5006623;28;20479;-73
2022/03/02 09:38:54;;;;;;;18.70;14.03;;;;;;;0.05;100.00;97098.66;4976356;28;20491;-75
2022/03/02 09:41:30;;;;;;;17.60;13.67;;;;;;;0.11;100.00;97112.50;4994631;28;20429;-75
2022/03/02 09:43:58;;;;;;;15.80;13.13;;;;;;;-0.04;100.00;97064.47;5008339;28;20581;-73
2022/03/02 09:46:35;;;;;;;193.10;121.53;;;;;;;0.15;100.00;97092.81;4990016;28;20438;-73
2022/03/02 09:49:05;;;;;;;16.30;14.57;;;;;;;0.55;100.00;97103.72;5006533;28;20913;-73
2022/03/02 09:51:33;;;;;;;50.60;32.10;;;;;;;0.34;100.00;97088.88;4990122;28;20519;-73
2022/03/02 09:54:08;;;;;;;22.73;15.87;;;;;;;0.20;100.00;97093.66;4993305;28;20499;-73
2022/03/02 09:56:36;;;;;;;19.23;14.53;;;;;;;0.26;100.00;97089.28;4977560;28;20500;-73
2022/03/02 09:59:08;;;;;;;20.10;14.83;;;;;;;0.58;100.00;97092.03;4994910;28;20467;-74
2022/03/02 10:01:38;;;;;;;24.03;14.37;;;;;;;0.80;100.00;97100.63;5010109;28;20440;-73
2022/03/02 10:04:13;;;;;;;17.13;13.60;;;;;;;0.86;100.00;97060.59;4996623;28;20508;-73
2022/03/02 10:06:43;;;;;;;18.50;13.70;;;;;;;1.14;100.00;97080.38;4998828;28;20440;-75
2022/03/02 10:09:12;;;;;;;18.33;14.10;;;;;;;0.97;100.00;97069.28;4994092;28;20458;-74
2022/03/02 10:11:43;;;;;;;16.57;12.40;;;;;;;1.05;100.00;97068.81;4978356;28;20881;-73
2022/03/02 10:14:11;;;;;;;17.70;13.97;;;;;;;1.17;100.00;97074.66;4997442;28;20533;-74
2022/03/02 10:16:43;;;;;;;18.07;13.40;;;;;;;0.59;98.75;97011.13;5012407;28;20851;-75
2022/03/02 10:19:33;;;;;;;17.40;12.50;;;;;;;1.31;100.00;97058.63;4995101;28;20459;-75
2022/03/02 10:22:22;;;;;;;17.23;13.47;;;;;;;1.26;98.10;97022.91;5011875;28;20988;-75
2022/03/02 10:24:56;;;;;;;12.70;11.40;;;;;;;1.18;92.88;97026.75;4995810;28;20472;-76
2022/03/02 10:27:50;;;;;;;19.10;16.93;;;;;;;1.46;95.13;97020.44;4995690;28;20447;-75
2022/03/02 10:30:18;;;;;;;17.23;13.67;;;;;;;1.95;91.55;97066.38;5009610;28;20536;-75
2022/03/02 10:32:49;;;;;;;13.50;12.20;;;;;;;1.97;92.01;97056.47;5015157;28;20809;-75
2022/03/02 10:35:21;;;;;;;12.97;11.67;;;;;;;1.95;92.48;97048.91;4993979;28;20986;-75
2022/03/02 10:38:15;;;;;;;15.00;11.63;;;;;;;2.14;90.34;97058.91;4993201;28;21312;-75
2022/03/02 10:40:43;;;;;;;16.60;12.17;;;;;;;1.93;88.32;97047.59;4993374;28;20470;-75
2022/03/02 10:43:15;;;;;;;15.17;11.80;;;;;;;1.80;87.55;97020.16;4992949;28;21021;-75
2022/03/02 10:45:46;;;;;;;17.93;11.50;;;;;;;2.24;87.01;97058.94;5009327;28;20433;-75
2022/03/02 10:48:32;;;;;;;15.30;12.07;;;;;;;2.28;85.21;97042.56;5009159;28;20450;-75
2022/03/02 10:50:59;;;;;;;19.17;13.20;;;;;;;2.27;83.05;97016.69;4992692;28;20555;-75
2022/03/02 10:53:30;;;;;;;16.67;12.30;;;;;;;2.51;81.73;97024.88;5009516;28;20545;-75
2022/03/02 10:55:57;;;;;;;17.67;11.70;;;;;;;2.59;80.87;97042.66;4994167;28;20815;-75
2022/03/02 10:58:29;;;;;;;15.17;11.53;;;;;;;2.48;79.17;97031.41;5008994;28;20467;-75
2022/03/02 11:00:58;;;;;;;13.00;10.63;;;;;;;2.58;79.49;97039.25;4977912;28;20465;-76
2022/03/02 11:03:36;;;;;;;15.37;13.23;;;;;;;2.44;79.66;97012.06;4979068;28;20528;-76
2022/03/02 11:06:06;;;;;;;19.23;13.23;;;;;;;2.67;79.02;97036.91;4983289;28;20954;-75
2022/03/02 11:08:37;;;;;;;12.73;10.60;;;;;;;2.61;79.82;97041.34;4979271;28;20536;-76
2022/03/02 11:11:09;;;;;;;16.57;11.20;;;;;;;2.64;78.66;97006.09;4979265;28;20496;-76
2022/03/02 11:13:37;;;;;;;15.43;12.00;;;;;;;2.93;75.80;97041.13;4995899;28;20477;-75
2022/03/02 11:16:05;;;;;;;13.77;11.50;;;;;;;2.72;75.87;97018.66;4994257;28;20929;-75
2022/03/02 11:18:38;;;;;;;18.03;10.83;;;;;;;2.77;74.27;97010.84;5011191;28;20454;-76
2022/03/02 11:21:10;;;;;;;16.70;10.83;;;;;;;3.09;73.33;97038.56;4996347;28;20486;-76
2022/03/02 11:23:41;;;;;;;14.63;11.53;;;;;;;3.12;69.23;97038.06;5012104;28;20496;-74